Time;durP1;ratioP1;P1;durP2;ratioP2;P2;SDS_P1;SDS_P2;PMS_P1;PMS_P2;Temp;Humidity;BMP_temperature;BMP_pressure;BME280_temperature;BME280_humidity;BME280_pressure;Samples;Min_cycle;Max_cycle;Signal;HPM_P1;HPM_P2
2022/12/02 00:01:53;;;;;;;44.08;14.38;;;;;;;;;;6253540;28;20056;-61
2022/12/02 00:05:02;;;;;;;42.47;13.80;;;;;;;;;;6255767;28;20045;-61
2022/12/02 00:08:23;;;;;;;49.90;14.82;;;;;;;;;;6259609;28;20136;-64
2022/12/02 00:11:29;;;;;;;48.78;15.50;;;;;;;;;;6245655;28;20090;-60
2022/12/02 00:14:34;;;;;;;52.83;16.58;;;;;;;;;;6250878;28;20045;-61
2022/12/02 00:17:34;;;;;;;56.75;18.58;;;;;;;;;;6249644;28;20137;-61
2022/12/02 00:20:35;;;;;;;52.10;17.50;;;;;;;;;;6266745;28;20052;-60
2022/12/02 00:23:36;;;;;;;53.28;16.73;;;;;;;;;;6251162;28;20045;-61
2022/12/02 00:26:37;;;;;;;55.33;19.10;;;;;;;;;;6249972;28;20047;-66
2022/12/02 00:29:38;;;;;;;54.38;17.42;;;;;;;;;;6249093;28;20045;-65
2022/12/02 00:32:38;;;;;;;53.83;17.05;;;;;;;;;;6255190;28;20055;-65
2022/12/02 00:35:39;;;;;;;60.20;18.67;;;;;;;;;;6258455;28;20967;-61
2022/12/02 00:38:39;;;;;;;47.38;15.88;;;;;;;;;;6255892;28;20075;-66
2022/12/02 00:41:40;;;;;;;54.10;17.35;;;;;;;;;;6264545;28;20049;-61
2022/12/02 00:48:00;;;;;;;64.45;20.25;;;;;;;;;;6249707;28;20037;-69
2022/12/02 00:51:01;;;;;;;51.42;16.83;;;;;;;;;;6255535;28;20412;-61
2022/12/02 00:54:01;;;;;;;64.60;19.25;;;;;;;;;;6264912;28;20512;-63
2022/12/02 00:57:02;;;;;;;52.28;17.52;;;;;;;;;;6249252;28;20388;-60
2022/12/02 01:00:04;;;;;;;52.60;18.50;;;;;;;;;;6250581;28;20052;-64
2022/12/02 01:03:05;;;;;;;56.65;18.10;;;;;;;;;;6247989;28;20045;-60
2022/12/02 01:06:06;;;;;;;50.83;17.70;;;;;;;;;;6248620;28;20492;-65
2022/12/02 01:09:06;;;;;;;56.53;17.20;;;;;;;;;;6252938;28;20051;-60
2022/12/02 01:12:07;;;;;;;63.33;21.83;;;;;;;;;;6258942;28;20044;-61
2022/12/02 01:15:08;;;;;;;62.17;18.48;;;;;;;;;;6252820;28;20124;-61
2022/12/02 01:18:09;;;;;;;52.70;16.63;;;;;;;;;;6250240;28;20492;-61
2022/12/02 01:21:09;;;;;;;49.78;16.15;;;;;;;;;;6257068;28;20063;-63
2022/12/02 01:24:10;;;;;;;51.00;16.38;;;;;;;;;;6255755;28;20099;-61
2022/12/02 01:27:10;;;;;;;56.80;19.65;;;;;;;;;;6255600;28;20704;-68
2022/12/02 01:30:12;;;;;;;52.45;17.75;;;;;;;;;;6257055;28;20053;-60
2022/12/02 01:33:13;;;;;;;50.38;17.80;;;;;;;;;;6255355;28;20488;-61
2022/12/02 01:36:13;;;;;;;44.35;13.80;;;;;;;;;;6252581;28;20055;-61
2022/12/02 01:39:14;;;;;;;43.55;15.32;;;;;;;;;;6248786;28;20045;-60
2022/12/02 01:42:14;;;;;;;46.17;16.50;;;;;;;;;;6252141;28;20049;-61
2022/12/02 01:45:16;;;;;;;47.55;14.73;;;;;;;;;;6254560;28;20048;-60
2022/12/02 01:48:17;;;;;;;43.58;14.45;;;;;;;;;;6251995;28;20049;-60
2022/12/02 01:51:18;;;;;;;44.67;14.20;;;;;;;;;;6262708;28;20114;-62
2022/12/02 01:54:19;;;;;;;44.10;16.33;;;;;;;;;;6265596;28;20060;-60
2022/12/02 01:57:27;;;;;;;46.05;14.23;;;;;;;;;;6252039;28;20114;-67
2022/12/02 02:00:28;;;;;;;40.35;13.32;;;;;;;;;;6252529;28;20049;-60
2022/12/02 02:03:29;;;;;;;38.78;12.60;;;;;;;;;;6262028;28;20077;-60
2022/12/02 02:06:33;;;;;;;35.85;12.20;;;;;;;;;;6266059;28;20047;-60
2022/12/02 02:09:34;;;;;;;44.13;12.77;;;;;;;;;;6254389;28;20419;-68
2022/12/02 02:12:35;;;;;;;36.28;12.80;;;;;;;;;;6254741;28;20079;-67
2022/12/02 02:15:41;;;;;;;38.42;12.48;;;;;;;;;;6251156;28;20052;-62
2022/12/02 02:18:42;;;;;;;38.63;12.93;;;;;;;;;;6248272;28;20492;-67
2022/12/02 02:21:48;;;;;;;42.90;12.73;;;;;;;;;;6251356;28;20187;-60
2022/12/02 02:24:49;;;;;;;39.08;12.10;;;;;;;;;;6254381;28;20045;-60
2022/12/02 02:27:58;;;;;;;34.00;12.80;;;;;;;;;;6252385;28;20041;-61
2022/12/02 02:30:59;;;;;;;38.33;13.13;;;;;;;;;;6254192;28;20045;-60
2022/12/02 02:34:00;;;;;;;36.55;11.75;;;;;;;;;;6250350;28;20072;-60
2022/12/02 02:37:01;;;;;;;41.25;14.02;;;;;;;;;;6249597;28;20583;-61
2022/12/02 02:40:02;;;;;;;37.45;13.73;;;;;;;;;;6252203;28;20548;-60
2022/12/02 02:43:03;;;;;;;44.85;13.02;;;;;;;;;;6265259;28;20049;-63
2022/12/02 02:46:04;;;;;;;43.40;14.98;;;;;;;;;;6259192;28;20045;-61
2022/12/02 02:49:05;;;;;;;39.00;14.02;;;;;;;;;;6250721;28;20044;-61
2022/12/02 02:52:05;;;;;;;35.67;13.05;;;;;;;;;;6250812;28;20053;-60
2022/12/02 02:55:07;;;;;;;37.60;13.88;;;;;;;;;;6251172;28;20424;-64
2022/12/02 02:58:09;;;;;;;43.53;13.18;;;;;;;;;;6251450;28;20063;-60
2022/12/02 03:01:13;;;;;;;40.17;15.13;;;;;;;;;;6251997;28;20046;-61
2022/12/02 03:04:18;;;;;;;42.50;13.43;;;;;;;;;;6250706;28;20067;-60
2022/12/02 03:07:20;;;;;;;42.60;13.38;;;;;;;;;;6248427;28;20416;-60
2022/12/02 03:10:20;;;;;;;43.05;14.25;;;;;;;;;;6251060;28;20111;-62
2022/12/02 03:13:21;;;;;;;46.88;13.88;;;;;;;;;;6251333;28;20502;-60
2022/12/02 03:16:24;;;;;;;43.45;16.65;;;;;;;;;;6251744;28;20049;-60
2022/12/02 03:19:24;;;;;;;40.50;14.65;;;;;;;;;;6248419;28;20064;-60
2022/12/02 03:22:25;;;;;;;39.45;13.63;;;;;;;;;;6251787;28;20045;-60
2022/12/02 03:25:27;;;;;;;41.10;12.50;;;;;;;;;;6251797;28;20385;-60
2022/12/02 03:28:28;;;;;;;33.40;11.70;;;;;;;;;;6250227;28;20053;-61
2022/12/02 03:31:29;;;;;;;43.35;14.65;;;;;;;;;;6250930;28;20041;-63
2022/12/02 03:34:30;;;;;;;52.00;15.25;;;;;;;;;;6249513;28;20083;-63
2022/12/02 03:37:31;;;;;;;36.80;12.90;;;;;;;;;;6247257;28;20041;-61
2022/12/02 03:40:32;;;;;;;47.58;15.25;;;;;;;;;;6250961;28;20052;-60
2022/12/02 03:43:33;;;;;;;40.13;13.10;;;;;;;;;;6252470;28;20044;-60
2022/12/02 03:46:33;;;;;;;37.17;13.18;;;;;;;;;;6250530;28;20049;-64
2022/12/02 03:49:34;;;;;;;40.95;13.00;;;;;;;;;;6251097;28;20435;-60
2022/12/02 03:52:35;;;;;;;39.75;13.35;;;;;;;;;;6252834;28;20045;-60
2022/12/02 03:55:36;;;;;;;38.75;12.45;;;;;;;;;;6256587;28;20045;-60
2022/12/02 03:58:48;;;;;;;40.50;13.98;;;;;;;;;;6246170;28;20073;-59
2022/12/02 04:01:49;;;;;;;48.08;13.68;;;;;;;;;;6254269;28;20452;-63
2022/12/02 04:04:50;;;;;;;45.95;14.43;;;;;;;;;;6254221;28;20077;-61
2022/12/02 04:07:50;;;;;;;44.97;13.80;;;;;;;;;;6249686;28;20488;-60
2022/12/02 04:10:51;;;;;;;46.83;14.30;;;;;;;;;;6248622;28;20544;-59
2022/12/02 04:13:51;;;;;;;36.00;11.15;;;;;;;;;;6247850;28;20080;-59
2022/12/02 04:16:52;;;;;;;35.25;12.55;;;;;;;;;;6249966;28;20480;-61
2022/12/02 04:19:54;;;;;;;39.45;13.40;;;;;;;;;;6247082;28;20053;-61
2022/12/02 04:22:55;;;;;;;38.25;12.38;;;;;;;;;;6250825;28;20049;-63
2022/12/02 04:25:55;;;;;;;39.13;15.55;;;;;;;;;;6251452;28;20800;-62
2022/12/02 04:28:56;;;;;;;34.67;12.00;;;;;;;;;;6263707;28;20480;-62
2022/12/02 04:31:56;;;;;;;31.33;10.80;;;;;;;;;;6253867;28;20041;-61
2022/12/02 04:34:57;;;;;;;33.50;12.25;;;;;;;;;;6250091;28;20064;-65
2022/12/02 04:37:57;;;;;;;34.00;11.15;;;;;;;;;;6249250;28;20045;-61
2022/12/02 04:40:58;;;;;;;34.30;11.95;;;;;;;;;;6252296;28;20056;-61
2022/12/02 04:43:58;;;;;;;33.08;11.25;;;;;;;;;;6245903;28;20045;-61
2022/12/02 04:46:59;;;;;;;34.13;12.35;;;;;;;;;;6247260;28;20073;-61
2022/12/02 04:50:00;;;;;;;38.00;14.27;;;;;;;;;;6254921;28;21281;-61
2022/12/02 04:53:00;;;;;;;36.28;12.70;;;;;;;;;;6250241;28;20415;-61
2022/12/02 04:56:01;;;;;;;37.95;13.27;;;;;;;;;;6249902;28;20045;-61
2022/12/02 04:59:01;;;;;;;29.73;11.80;;;;;;;;;;6247697;28;20049;-65
2022/12/02 05:02:02;;;;;;;34.97;12.13;;;;;;;;;;6246834;28;21094;-60
2022/12/02 05:05:03;;;;;;;38.03;13.02;;;;;;;;;;6248603;28;20049;-61
2022/12/02 05:08:04;;;;;;;30.52;11.75;;;;;;;;;;6246512;28;20056;-61
2022/12/02 05:11:05;;;;;;;32.47;13.38;;;;;;;;;;6248452;28;20045;-61
2022/12/02 05:14:05;;;;;;;34.63;12.80;;;;;;;;;;6248301;28;20067;-61
2022/12/02 05:17:06;;;;;;;34.22;14.02;;;;;;;;;;6245545;28;20042;-61
2022/12/02 05:20:07;;;;;;;32.08;13.32;;;;;;;;;;6245483;28;20044;-62
2022/12/02 05:23:08;;;;;;;29.83;10.80;;;;;;;;;;6248012;28;20080;-68
2022/12/02 05:26:08;;;;;;;33.33;12.05;;;;;;;;;;6250215;28;20041;-61
2022/12/02 05:29:09;;;;;;;30.73;11.73;;;;;;;;;;6243927;28;20483;-61
2022/12/02 05:32:10;;;;;;;33.67;11.95;;;;;;;;;;6238610;28;20436;-65
2022/12/02 05:35:10;;;;;;;35.25;13.27;;;;;;;;;;6249672;28;20145;-67
2022/12/02 05:38:11;;;;;;;32.83;11.50;;;;;;;;;;6251833;28;20530;-68
2022/12/02 05:41:11;;;;;;;38.05;13.10;;;;;;;;;;6248238;28;20424;-63
2022/12/02 05:44:24;;;;;;;35.67;14.30;;;;;;;;;;6260661;28;20048;-61
2022/12/02 05:47:26;;;;;;;;;;;;;;;;;;6258187;28;20412;-61
2022/12/02 05:50:30;;;;;;;25.98;10.05;;;;;;;;;;6245093;28;19925;-61
2022/12/02 05:53:33;;;;;;;34.47;12.20;;;;;;;;;;6249643;28;20053;-61
2022/12/02 05:56:34;;;;;;;33.80;12.05;;;;;;;;;;6254886;28;20046;-63
2022/12/02 05:59:35;;;;;;;35.15;13.68;;;;;;;;;;6252396;28;20057;-65
2022/12/02 06:02:39;;;;;;;29.10;11.75;;;;;;;;;;6260364;28;20416;-61
2022/12/02 06:05:41;;;;;;;29.65;12.20;;;;;;;;;;6249647;28;20764;-62
2022/12/02 06:08:42;;;;;;;27.60;8.88;;;;;;;;;;6245928;28;20053;-61
2022/12/02 06:11:46;;;;;;;26.33;10.07;;;;;;;;;;6250720;28;20067;-64
2022/12/02 06:14:51;;;;;;;28.20;10.88;;;;;;;;;;6246409;28;20140;-61
2022/12/02 06:17:52;;;;;;;31.88;11.73;;;;;;;;;;6261033;28;20048;-61
2022/12/02 06:20:56;;;;;;;34.10;11.13;;;;;;;;;;6260157;28;20053;-61
2022/12/02 06:23:57;;;;;;;28.85;9.55;;;;;;;;;;6258547;28;20142;-62
2022/12/02 06:27:00;;;;;;;27.83;9.88;;;;;;;;;;6269054;28;20044;-62
2022/12/02 06:30:03;;;;;;;33.50;11.48;;;;;;;;;;6267806;28;20076;-61
2022/12/02 06:33:03;;;;;;;24.67;10.43;;;;;;;;;;6268889;28;20769;-67
2022/12/02 06:36:12;;;;;;;31.38;13.13;;;;;;;;;;6270532;28;20049;-65
2022/12/02 06:39:22;;;;;;;34.53;12.65;;;;;;;;;;6260350;28;20047;-61
2022/12/02 06:42:35;;;;;;;24.80;10.60;;;;;;;;;;6251580;28;20098;-61
2022/12/02 06:45:35;;;;;;;27.88;9.82;;;;;;;;;;6254288;28;20096;-64
2022/12/02 06:48:36;;;;;;;29.65;10.52;;;;;;;;;;6255727;28;20385;-61
2022/12/02 06:51:36;;;;;;;28.52;12.82;;;;;;;;;;6253732;28;20049;-60
2022/12/02 06:54:38;;;;;;;30.20;11.43;;;;;;;;;;6254026;28;20094;-60
2022/12/02 06:57:38;;;;;;;31.27;11.60;;;;;;;;;;6253301;28;20064;-60
2022/12/02 07:00:39;;;;;;;34.58;11.77;;;;;;;;;;6249764;28;20072;-60
2022/12/02 07:03:47;;;;;;;34.83;11.13;;;;;;;;;;6250814;28;20045;-65
2022/12/02 07:06:53;;;;;;;32.63;11.52;;;;;;;;;;6251641;28;20099;-60
2022/12/02 07:10:05;;;;;;;35.25;12.60;;;;;;;;;;6250158;28;20479;-61
2022/12/02 07:13:14;;;;;;;25.35;10.07;;;;;;;;;;6251576;28;20043;-60
2022/12/02 07:16:33;;;;;;;29.58;9.95;;;;;;;;;;6252012;28;20060;-60
2022/12/02 07:19:47;;;;;;;26.73;10.27;;;;;;;;;;6249835;28;20149;-61
2022/12/02 07:22:53;;;;;;;22.45;7.93;;;;;;;;;;6248447;28;20044;-60
2022/12/02 07:25:56;;;;;;;24.80;8.88;;;;;;;;;;6249212;28;20389;-64
2022/12/02 07:28:59;;;;;;;30.58;11.40;;;;;;;;;;6251588;28;20053;-61
2022/12/02 07:32:00;;;;;;;30.08;10.23;;;;;;;;;;6248883;28;20041;-61
2022/12/02 07:35:00;;;;;;;29.60;9.95;;;;;;;;;;6249488;28;20574;-61
2022/12/02 07:38:01;;;;;;;34.33;11.15;;;;;;;;;;6249774;28;20041;-59
2022/12/02 07:41:01;;;;;;;39.08;11.63;;;;;;;;;;6249710;28;20049;-61
2022/12/02 07:44:02;;;;;;;29.83;10.13;;;;;;;;;;6246914;28;20053;-63
2022/12/02 07:47:03;;;;;;;28.15;11.00;;;;;;;;;;6250439;28;20045;-60
2022/12/02 07:50:05;;;;;;;42.10;13.93;;;;;;;;;;6251460;28;20037;-61
2022/12/02 07:53:06;;;;;;;39.60;14.80;;;;;;;;;;6248956;28;20136;-60
2022/12/02 07:56:07;;;;;;;38.25;13.80;;;;;;;;;;6249550;28;20136;-59
2022/12/02 07:59:07;;;;;;;39.75;13.68;;;;;;;;;;6251359;28;20052;-60
2022/12/02 08:02:08;;;;;;;41.53;14.70;;;;;;;;;;6250176;28;20068;-61
2022/12/02 08:05:10;;;;;;;36.33;13.45;;;;;;;;;;6250705;28;20045;-61
2022/12/02 08:08:11;;;;;;;37.60;14.00;;;;;;;;;;6262644;28;20045;-61
2022/12/02 08:11:12;;;;;;;40.53;12.48;;;;;;;;;;6251337;28;20052;-59
2022/12/02 08:14:12;;;;;;;39.45;12.65;;;;;;;;;;6249406;28;20048;-64
2022/12/02 08:17:13;;;;;;;34.33;10.98;;;;;;;;;;6248892;28;20468;-59
2022/12/02 08:20:14;;;;;;;31.10;9.15;;;;;;;;;;6248158;28;20052;-61
2022/12/02 08:23:15;;;;;;;26.65;9.82;;;;;;;;;;6247282;28;20062;-61
2022/12/02 08:26:15;;;;;;;28.65;10.85;;;;;;;;;;6250658;28;20146;-61
2022/12/02 08:29:16;;;;;;;26.67;9.18;;;;;;;;;;6262319;28;20503;-61
2022/12/02 08:32:18;;;;;;;29.52;10.48;;;;;;;;;;6249233;28;20404;-61
2022/12/02 08:35:18;;;;;;;28.15;11.35;;;;;;;;;;6249378;28;20519;-61
2022/12/02 08:38:19;;;;;;;33.10;11.00;;;;;;;;;;6249746;28;20136;-62
2022/12/02 08:41:20;;;;;;;30.75;11.20;;;;;;;;;;6245722;28;20424;-61
2022/12/02 08:44:21;;;;;;;27.38;9.85;;;;;;;;;;6247694;28;20501;-60
2022/12/02 08:47:21;;;;;;;35.70;12.13;;;;;;;;;;6248728;28;20045;-61
2022/12/02 08:50:22;;;;;;;29.73;9.95;;;;;;;;;;6250164;28;20118;-60
2022/12/02 08:53:22;;;;;;;28.33;11.13;;;;;;;;;;6251112;28;20094;-61
2022/12/02 08:56:23;;;;;;;42.63;12.85;;;;;;;;;;6248735;28;20045;-62
2022/12/02 08:59:23;;;;;;;36.33;14.05;;;;;;;;;;6250094;28;20045;-60
2022/12/02 09:02:24;;;;;;;34.72;11.43;;;;;;;;;;6250390;28;20092;-61
2022/12/02 09:05:24;;;;;;;30.10;11.07;;;;;;;;;;6250274;28;20041;-61
2022/12/02 09:08:25;;;;;;;33.25;12.57;;;;;;;;;;6251259;28;20057;-59
2022/12/02 09:11:26;;;;;;;30.00;11.77;;;;;;;;;;6248609;28;20575;-60
2022/12/02 09:14:27;;;;;;;32.08;11.88;;;;;;;;;;6248373;28;20059;-59
2022/12/02 09:17:28;;;;;;;28.65;10.18;;;;;;;;;;6249366;28;20421;-60
2022/12/02 09:20:29;;;;;;;34.83;12.65;;;;;;;;;;6247367;28;20065;-62
2022/12/02 09:23:29;;;;;;;35.47;12.48;;;;;;;;;;6248421;28;20053;-60
2022/12/02 09:26:30;;;;;;;38.05;13.38;;;;;;;;;;6247278;28;20068;-62
2022/12/02 09:29:32;;;;;;;35.70;12.57;;;;;;;;;;6251197;28;20034;-61
2022/12/02 09:32:33;;;;;;;;;;;;;;;;;;6252158;28;20634;-61
2022/12/02 09:35:33;;;;;;;33.65;11.90;;;;;;;;;;6250312;28;19929;-61
2022/12/02 09:38:34;;;;;;;33.03;12.50;;;;;;;;;;6252059;28;20132;-59
2022/12/02 09:41:36;;;;;;;31.50;11.75;;;;;;;;;;6252854;28;20049;-60
2022/12/02 09:44:37;;;;;;;33.78;11.93;;;;;;;;;;6251117;28;20690;-60
2022/12/02 09:47:39;;;;;;;32.08;11.48;;;;;;;;;;6264482;28;20052;-60
2022/12/02 09:50:40;;;;;;;40.25;13.40;;;;;;;;;;6251943;28;20601;-60
2022/12/02 09:53:41;;;;;;;40.22;13.68;;;;;;;;;;6251095;28;20037;-60
2022/12/02 09:56:42;;;;;;;40.73;13.37;;;;;;;;;;6251979;28;20045;-60
2022/12/02 09:59:43;;;;;;;51.95;19.05;;;;;;;;;;6252189;28;20541;-60
2022/12/02 10:02:48;;;;;;;40.10;13.10;;;;;;;;;;6253175;28;20059;-60
2022/12/02 10:05:49;;;;;;;42.47;14.50;;;;;;;;;;6253007;28;20476;-59
2022/12/02 10:08:54;;;;;;;43.42;15.15;;;;;;;;;;6252983;28;20094;-60
2022/12/02 10:11:55;;;;;;;57.85;19.20;;;;;;;;;;6252405;28;20095;-60
2022/12/02 10:14:58;;;;;;;51.05;16.30;;;;;;;;;;6252486;28;21180;-59
2022/12/02 10:18:09;;;;;;;39.03;13.80;;;;;;;;;;6255029;28;20049;-60
2022/12/02 10:21:10;;;;;;;42.47;13.63;;;;;;;;;;6251811;28;20499;-60
2022/12/02 10:24:12;;;;;;;49.63;15.30;;;;;;;;;;6249976;28;20049;-60
2022/12/02 10:27:42;;;;;;;50.88;14.95;;;;;;;;;;6251821;28;20065;-60
2022/12/02 10:30:55;;;;;;;48.67;17.05;;;;;;;;;;6240362;28;20049;-60
2022/12/02 10:34:05;;;;;;;45.88;15.10;;;;;;;;;;6251735;28;20131;-60
2022/12/02 10:37:24;;;;;;;40.50;14.40;;;;;;;;;;6249126;28;20485;-62
2022/12/02 10:40:25;;;;;;;58.45;19.92;;;;;;;;;;6251862;28;20071;-60
2022/12/02 10:43:25;;;;;;;58.58;16.60;;;;;;;;;;6251543;28;20543;-60
2022/12/02 10:46:26;;;;;;;61.58;20.05;;;;;;;;;;6252803;28;20075;-60
2022/12/02 10:49:30;;;;;;;51.30;18.63;;;;;;;;;;6251945;28;20045;-60
2022/12/02 10:52:43;;;;;;;50.85;17.88;;;;;;;;;;6254533;28;20389;-59
2022/12/02 10:55:46;;;;;;;62.13;19.95;;;;;;;;;;6248493;28;20061;-60
2022/12/02 10:58:49;;;;;;;52.13;16.40;;;;;;;;;;6250369;28;20065;-60
2022/12/02 11:01:50;;;;;;;64.18;18.67;;;;;;;;;;6251486;28;20056;-60
2022/12/02 11:04:52;;;;;;;61.70;22.50;;;;;;;;;;6255644;28;20046;-60
2022/12/02 11:08:06;;;;;;;62.28;22.30;;;;;;;;;;6250936;28;20131;-60
2022/12/02 11:11:08;;;;;;;54.22;18.40;;;;;;;;;;6253827;28;20071;-60
2022/12/02 11:14:11;;;;;;;;;;;;;;;;;;6251283;28;20481;-59
2022/12/02 11:17:12;;;;;;;54.80;17.80;;;;;;;;;;6248765;28;19929;-60
2022/12/02 11:20:35;;;;;;;48.67;15.35;;;;;;;;;;6265353;28;20070;-60
2022/12/02 11:23:36;;;;;;;43.63;15.07;;;;;;;;;;6266997;28;20052;-60
2022/12/02 11:26:58;;;;;;;43.22;13.32;;;;;;;;;;6267587;28;20041;-60
2022/12/02 11:30:05;;;;;;;42.90;14.70;;;;;;;;;;6267216;28;20411;-59
2022/12/02 11:33:11;;;;;;;53.40;15.95;;;;;;;;;;6264062;28;20135;-59
2022/12/02 11:36:16;;;;;;;47.78;15.90;;;;;;;;;;6268016;28;20045;-60
2022/12/02 11:39:40;;;;;;;45.05;13.77;;;;;;;;;;6267076;28;20068;-58
2022/12/02 11:42:43;;;;;;;51.53;16.83;;;;;;;;;;6267604;28;20053;-59
2022/12/02 11:45:43;;;;;;;47.05;15.43;;;;;;;;;;6266716;28;20629;-60
2022/12/02 11:48:46;;;;;;;40.88;14.70;;;;;;;;;;6267787;28;20129;-62
2022/12/02 11:51:47;;;;;;;47.50;14.20;;;;;;;;;;6267089;28;20123;-61
2022/12/02 11:54:50;;;;;;;57.83;15.52;;;;;;;;;;6259143;28;20053;-61
2022/12/02 11:57:52;;;;;;;;;;;;;;;;;;6249787;28;20069;-61
2022/12/02 12:01:11;;;;;;;50.37;15.97;;;;;;;;;;6248608;28;20426;-60
2022/12/02 12:04:28;;;;;;;47.65;15.25;;;;;;;;;;6246829;28;20046;-60
2022/12/02 12:07:45;;;;;;;53.78;16.48;;;;;;;;;;6252142;28;20051;-61
2022/12/02 12:10:46;;;;;;;45.45;17.63;;;;;;;;;;6249039;28;20135;-61
2022/12/02 12:14:11;;;;;;;54.63;20.38;;;;;;;;;;6247679;28;20083;-60
2022/12/02 12:17:28;;;;;;;52.00;17.42;;;;;;;;;;6260745;28;20481;-61
2022/12/02 12:20:34;;;;;;;53.60;19.60;;;;;;;;;;6263565;28;20151;-61
2022/12/02 12:23:43;;;;;;;48.80;16.90;;;;;;;;;;6251288;28;20049;-61
2022/12/02 12:26:56;;;;;;;65.28;24.52;;;;;;;;;;6249057;28;20070;-61
2022/12/02 12:29:56;;;;;;;57.95;18.75;;;;;;;;;;6248356;28;20512;-60
2022/12/02 12:32:57;;;;;;;50.90;17.63;;;;;;;;;;6250958;28;20052;-64
2022/12/02 12:35:58;;;;;;;63.88;21.52;;;;;;;;;;6247947;28;20064;-60
2022/12/02 12:39:00;;;;;;;54.42;19.50;;;;;;;;;;6250479;28;20519;-61
2022/12/02 12:42:00;;;;;;;47.08;15.65;;;;;;;;;;6247551;28;20450;-61
2022/12/02 12:45:01;;;;;;;47.70;15.52;;;;;;;;;;6244569;28;20131;-58
2022/12/02 12:48:01;;;;;;;44.72;14.60;;;;;;;;;;6260823;28;20084;-60
2022/12/02 12:51:02;;;;;;;48.55;14.50;;;;;;;;;;6249560;28;20076;-59
2022/12/02 12:54:03;;;;;;;47.65;14.52;;;;;;;;;;6252089;28;20041;-61
2022/12/02 12:57:03;;;;;;;47.58;17.35;;;;;;;;;;6251196;28;20137;-60
2022/12/02 13:00:05;;;;;;;52.08;17.33;;;;;;;;;;6252629;28;20041;-60
2022/12/02 13:03:05;;;;;;;47.90;14.00;;;;;;;;;;6254512;28;20091;-60
2022/12/02 13:06:06;;;;;;;49.88;15.88;;;;;;;;;;6255918;28;20429;-60
2022/12/02 13:09:07;;;;;;;46.90;15.88;;;;;;;;;;6256271;28;20044;-61
2022/12/02 13:12:08;;;;;;;57.70;17.08;;;;;;;;;;6256962;28;20044;-60
2022/12/02 13:15:09;;;;;;;47.67;15.57;;;;;;;;;;6254921;28;20056;-60
2022/12/02 13:18:10;;;;;;;47.10;16.02;;;;;;;;;;6256422;28;20052;-60
2022/12/02 13:21:10;;;;;;;54.00;16.67;;;;;;;;;;6256394;28;20060;-60
2022/12/02 13:24:14;;;;;;;59.65;16.98;;;;;;;;;;6255546;28;20049;-61
2022/12/02 13:27:15;;;;;;;62.65;20.27;;;;;;;;;;6259278;28;20055;-61
2022/12/02 13:30:17;;;;;;;52.70;16.70;;;;;;;;;;6263215;28;20068;-61
2022/12/02 13:33:18;;;;;;;57.33;19.73;;;;;;;;;;6264989;28;20060;-59
2022/12/02 13:36:19;;;;;;;55.47;18.65;;;;;;;;;;6265854;28;20052;-61
2022/12/02 13:39:19;;;;;;;65.13;18.90;;;;;;;;;;6263140;28;20084;-64
2022/12/02 13:42:20;;;;;;;59.78;19.70;;;;;;;;;;6263383;28;20158;-58
2022/12/02 13:45:20;;;;;;;55.00;17.35;;;;;;;;;;6263934;28;20135;-59
2022/12/02 13:48:21;;;;;;;60.67;19.10;;;;;;;;;;6263323;28;20040;-58
2022/12/02 13:51:22;;;;;;;60.30;19.95;;;;;;;;;;6262193;28;20511;-61
2022/12/02 13:54:23;;;;;;;49.97;16.85;;;;;;;;;;6264280;28;20535;-62
2022/12/02 13:57:24;;;;;;;49.65;16.60;;;;;;;;;;6261157;28;20198;-63
2022/12/02 14:00:25;;;;;;;57.83;17.77;;;;;;;;;;6264327;28;22224;-61
2022/12/02 14:03:25;;;;;;;48.92;17.48;;;;;;;;;;6261110;28;20045;-61
2022/12/02 14:06:26;;;;;;;58.67;16.33;;;;;;;;;;6260726;28;20822;-59
2022/12/02 14:09:26;;;;;;;54.30;17.10;;;;;;;;;;6263387;28;20064;-59
2022/12/02 14:12:27;;;;;;;54.95;18.60;;;;;;;;;;6262548;28;20089;-59
2022/12/02 14:15:28;;;;;;;57.63;18.95;;;;;;;;;;6260294;28;20072;-59
2022/12/02 14:18:28;;;;;;;59.08;17.13;;;;;;;;;;6256322;28;20451;-59
2022/12/02 14:21:29;;;;;;;56.40;16.90;;;;;;;;;;6259606;28;20060;-59
2022/12/02 14:24:29;;;;;;;60.50;20.90;;;;;;;;;;6257219;28;21274;-59
2022/12/02 14:27:30;;;;;;;54.28;18.77;;;;;;;;;;6264722;28;20132;-59
2022/12/02 14:30:31;;;;;;;56.25;19.73;;;;;;;;;;6262133;28;20080;-61
2022/12/02 14:33:31;;;;;;;61.58;20.88;;;;;;;;;;6259388;28;20060;-58
2022/12/02 14:36:32;;;;;;;66.10;23.45;;;;;;;;;;6258209;28;20052;-60
2022/12/02 14:39:33;;;;;;;55.65;18.33;;;;;;;;;;6257884;28;20060;-59
2022/12/02 14:42:33;;;;;;;63.22;19.55;;;;;;;;;;6256820;28;20064;-59
2022/12/02 14:45:34;;;;;;;66.90;22.35;;;;;;;;;;6258215;28;20045;-62
2022/12/02 14:48:34;;;;;;;71.93;21.67;;;;;;;;;;6254257;28;20048;-65
2022/12/02 14:51:35;;;;;;;68.13;19.67;;;;;;;;;;6260790;28;20049;-65
2022/12/02 14:54:36;;;;;;;79.88;23.67;;;;;;;;;;6258289;28;20055;-61
2022/12/02 14:57:36;;;;;;;64.65;20.23;;;;;;;;;;6255369;28;20051;-61
2022/12/02 15:00:37;;;;;;;60.45;17.95;;;;;;;;;;6255131;28;20045;-61
2022/12/02 15:03:37;;;;;;;53.45;18.27;;;;;;;;;;6257214;28;20049;-61
2022/12/02 15:06:38;;;;;;;61.08;20.42;;;;;;;;;;6255396;28;20805;-67
2022/12/02 15:09:39;;;;;;;58.60;19.50;;;;;;;;;;6259444;28;20056;-61
2022/12/02 15:12:39;;;;;;;73.43;23.73;;;;;;;;;;6260586;28;20053;-61
2022/12/02 15:15:40;;;;;;;54.92;16.55;;;;;;;;;;6258986;28;20044;-61
2022/12/02 15:18:41;;;;;;;52.35;18.05;;;;;;;;;;6255416;28;20511;-61
2022/12/02 15:21:41;;;;;;;59.53;17.27;;;;;;;;;;6258056;28;20498;-60
2022/12/02 15:24:42;;;;;;;57.40;19.90;;;;;;;;;;6260782;28;20052;-61
2022/12/02 15:27:43;;;;;;;59.20;20.33;;;;;;;;;;6256080;28;20050;-63
2022/12/02 15:30:43;;;;;;;55.95;18.45;;;;;;;;;;6255778;28;20056;-59
2022/12/02 15:33:45;;;;;;;54.00;17.08;;;;;;;;;;6258688;28;20171;-60
2022/12/02 15:36:45;;;;;;;56.45;18.10;;;;;;;;;;6254621;28;20163;-60
2022/12/02 15:39:46;;;;;;;67.45;21.60;;;;;;;;;;6256858;28;20051;-62
2022/12/02 15:42:46;;;;;;;60.00;20.70;;;;;;;;;;6267202;28;20052;-61
2022/12/02 15:45:47;;;;;;;70.78;24.58;;;;;;;;;;6265356;28;20150;-61
2022/12/02 15:48:49;;;;;;;50.28;17.25;;;;;;;;;;6268866;28;20551;-61
2022/12/02 15:51:49;;;;;;;64.18;19.73;;;;;;;;;;6271570;28;20843;-62
2022/12/02 15:54:50;;;;;;;57.60;19.92;;;;;;;;;;6267428;28;20052;-61
2022/12/02 15:57:51;;;;;;;62.90;19.15;;;;;;;;;;6264616;28;20136;-61
2022/12/02 16:00:51;;;;;;;78.70;23.83;;;;;;;;;;6272523;28;20045;-60
2022/12/02 16:03:52;;;;;;;55.40;17.50;;;;;;;;;;6270986;28;20053;-60
2022/12/02 16:06:52;;;;;;;64.82;19.52;;;;;;;;;;6263131;28;20531;-61
2022/12/02 16:09:53;;;;;;;59.40;17.55;;;;;;;;;;6273214;28;20049;-60
2022/12/02 16:12:53;;;;;;;67.90;19.38;;;;;;;;;;6270355;28;20049;-60
2022/12/02 16:15:54;;;;;;;56.40;18.33;;;;;;;;;;6265917;28;20071;-69
2022/12/02 16:18:55;;;;;;;85.05;23.45;;;;;;;;;;6264634;28;20043;-63
2022/12/02 16:21:56;;;;;;;62.47;19.92;;;;;;;;;;6264484;28;20060;-62
2022/12/02 16:24:56;;;;;;;53.70;20.23;;;;;;;;;;6266217;28;20049;-62
2022/12/02 16:27:57;;;;;;;70.78;21.17;;;;;;;;;;6260106;28;20049;-62
2022/12/02 16:30:57;;;;;;;75.43;22.55;;;;;;;;;;6254666;28;20048;-73
2022/12/02 16:33:58;;;;;;;78.38;24.23;;;;;;;;;;6263578;28;20450;-61
2022/12/02 16:36:58;;;;;;;68.13;22.60;;;;;;;;;;6268583;28;20045;-69
2022/12/02 16:39:59;;;;;;;64.15;22.67;;;;;;;;;;6273656;28;20048;-62
2022/12/02 16:43:00;;;;;;;65.60;21.77;;;;;;;;;;6267441;28;20087;-63
2022/12/02 16:46:01;;;;;;;62.87;21.40;;;;;;;;;;6266901;28;20049;-61
2022/12/02 16:49:02;;;;;;;67.75;21.23;;;;;;;;;;6261159;28;20071;-63
2022/12/02 16:52:03;;;;;;;66.45;20.33;;;;;;;;;;6258214;28;20045;-62
2022/12/02 16:55:05;;;;;;;66.80;19.75;;;;;;;;;;6263495;28;20048;-62
2022/12/02 16:58:06;;;;;;;;;;;;;;;;;;6261475;28;20057;-69
2022/12/02 17:01:07;;;;;;;64.30;19.20;;;;;;;;;;6261979;28;19935;-62
2022/12/02 17:04:07;;;;;;;65.57;19.08;;;;;;;;;;6258998;28;20056;-67
2022/12/02 17:07:09;;;;;;;60.28;18.08;;;;;;;;;;6260960;28;20045;-62
2022/12/02 17:10:10;;;;;;;65.32;21.20;;;;;;;;;;6242872;28;20063;-63
2022/12/02 17:13:11;;;;;;;73.30;21.90;;;;;;;;;;6263272;28;20305;-62
2022/12/02 17:16:11;;;;;;;82.13;23.55;;;;;;;;;;6269557;28;21031;-62
2022/12/02 17:19:12;;;;;;;63.65;20.23;;;;;;;;;;6261094;28;20064;-57
2022/12/02 17:22:12;;;;;;;65.82;21.13;;;;;;;;;;6264241;28;20044;-62
2022/12/02 17:25:13;;;;;;;74.60;21.52;;;;;;;;;;6263648;28;20045;-62
2022/12/02 17:28:14;;;;;;;59.78;19.15;;;;;;;;;;6259665;28;20424;-69
2022/12/02 17:31:14;;;;;;;67.15;21.45;;;;;;;;;;6261200;28;20049;-73
2022/12/02 17:34:15;;;;;;;83.50;27.88;;;;;;;;;;6260440;28;20841;-61
2022/12/02 17:37:15;;;;;;;76.82;24.55;;;;;;;;;;6261800;28;20049;-62
2022/12/02 17:40:16;;;;;;;67.13;22.13;;;;;;;;;;6652166;22;20146;-72
2022/12/02 17:43:17;;;;;;;75.45;21.67;;;;;;;;;;6276001;28;20063;-62
2022/12/02 17:46:18;;;;;;;72.47;22.00;;;;;;;;;;6286546;28;20049;-70